sensor_id;sensor_type;location;lat;lon;timestamp;temperature;humidity
39889;DHT22;25563;50.844;4.308;2023-12-20T00:01:39;7.80;99.90
39889;DHT22;25563;50.844;4.308;2023-12-20T00:04:05;7.80;99.90
39889;DHT22;25563;50.844;4.308;2023-12-20T00:06:33;7.80;99.90
39889;DHT22;25563;50.844;4.308;2023-12-20T00:08:59;7.60;99.90
39889;DHT22;25563;50.844;4.308;2023-12-20T00:11:25;7.80;99.90
39889;DHT22;25563;50.844;4.308;2023-12-20T00:13:51;7.80;99.90
39889;DHT22;25563;50.844;4.308;2023-12-20T00:16:17;8.00;99.90
39889;DHT22;25563;50.844;4.308;2023-12-20T00:18:43;8.10;99.90
39889;DHT22;25563;50.844;4.308;2023-12-20T00:21:09;7.00;99.90
39889;DHT22;25563;50.844;4.308;2023-12-20T00:23:35;8.10;99.90
39889;DHT22;25563;50.844;4.308;2023-12-20T00:26:01;7.60;99.90
39889;DHT22;25563;50.844;4.308;2023-12-20T00:28:27;7.90;99.90
39889;DHT22;25563;50.844;4.308;2023-12-20T00:30:53;7.90;99.90
39889;DHT22;25563;50.844;4.308;2023-12-20T00:33:21;7.80;99.90
39889;DHT22;25563;50.844;4.308;2023-12-20T00:35:47;8.00;99.90
39889;DHT22;25563;50.844;4.308;2023-12-20T00:38:14;7.80;99.90
39889;DHT22;25563;50.844;4.308;2023-12-20T00:40:42;8.10;99.90
39889;DHT22;25563;50.844;4.308;2023-12-20T00:43:08;8.00;99.90
39889;DHT22;25563;50.844;4.308;2023-12-20T00:45:34;7.80;99.90
39889;DHT22;25563;50.844;4.308;2023-12-20T00:47:59;8.00;99.90
39889;DHT22;25563;50.844;4.308;2023-12-20T00:50:25;7.80;99.90
39889;DHT22;25563;50.844;4.308;2023-12-20T00:52:52;7.70;99.90
39889;DHT22;25563;50.844;4.308;2023-12-20T00:55:18;7.60;99.90
39889;DHT22;25563;50.844;4.308;2023-12-20T00:57:44;7.60;99.90
39889;DHT22;25563;50.844;4.308;2023-12-20T01:00:10;7.60;99.90
39889;DHT22;25563;50.844;4.308;2023-12-20T01:02:36;7.60;99.90
39889;DHT22;25563;50.844;4.308;2023-12-20T01:05:02;7.60;99.90
39889;DHT22;25563;50.844;4.308;2023-12-20T01:07:28;7.50;99.90
39889;DHT22;25563;50.844;4.308;2023-12-20T01:09:55;7.80;99.90
39889;DHT22;25563;50.844;4.308;2023-12-20T01:12:21;6.60;99.90
39889;DHT22;25563;50.844;4.308;2023-12-20T01:14:47;7.60;99.90
39889;DHT22;25563;50.844;4.308;2023-12-20T01:17:16;7.50;99.90
39889;DHT22;25563;50.844;4.308;2023-12-20T01:19:41;7.40;99.90
39889;DHT22;25563;50.844;4.308;2023-12-20T01:22:07;7.50;99.90
39889;DHT22;25563;50.844;4.308;2023-12-20T01:24:33;7.70;99.90
39889;DHT22;25563;50.844;4.308;2023-12-20T01:26:59;7.90;99.90
39889;DHT22;25563;50.844;4.308;2023-12-20T01:29:25;7.60;99.90
39889;DHT22;25563;50.844;4.308;2023-12-20T01:31:51;7.60;99.90
39889;DHT22;25563;50.844;4.308;2023-12-20T01:34:17;7.70;99.90
39889;DHT22;25563;50.844;4.308;2023-12-20T01:36:43;7.70;99.90
39889;DHT22;25563;50.844;4.308;2023-12-20T01:39:10;7.50;99.90
39889;DHT22;25563;50.844;4.308;2023-12-20T01:41:37;7.60;99.90
39889;DHT22;25563;50.844;4.308;2023-12-20T01:44:03;7.50;99.90
39889;DHT22;25563;50.844;4.308;2023-12-20T01:46:34;7.10;99.90
39889;DHT22;25563;50.844;4.308;2023-12-20T01:49:00;7.60;99.90
39889;DHT22;25563;50.844;4.308;2023-12-20T01:51:29;7.60;99.90
39889;DHT22;25563;50.844;4.308;2023-12-20T01:53:57;7.80;99.90
39889;DHT22;25563;50.844;4.308;2023-12-20T01:56:24;7.60;99.90
39889;DHT22;25563;50.844;4.308;2023-12-20T01:58:51;7.50;99.90
39889;DHT22;25563;50.844;4.308;2023-12-20T02:01:18;6.20;99.90
39889;DHT22;25563;50.844;4.308;2023-12-20T02:03:44;7.70;99.90
39889;DHT22;25563;50.844;4.308;2023-12-20T02:06:11;7.90;99.90
39889;DHT22;25563;50.844;4.308;2023-12-20T02:08:36;8.10;99.90
39889;DHT22;25563;50.844;4.308;2023-12-20T02:11:02;7.90;99.90
39889;DHT22;25563;50.844;4.308;2023-12-20T02:13:28;7.70;99.90
39889;DHT22;25563;50.844;4.308;2023-12-20T02:15:57;7.60;99.90
39889;DHT22;25563;50.844;4.308;2023-12-20T02:18:23;7.60;99.90
39889;DHT22;25563;50.844;4.308;2023-12-20T02:20:49;7.60;99.90
39889;DHT22;25563;50.844;4.308;2023-12-20T02:23:15;7.60;99.90
39889;DHT22;25563;50.844;4.308;2023-12-20T02:25:41;7.60;99.90
39889;DHT22;25563;50.844;4.308;2023-12-20T02:28:07;7.50;99.90
39889;DHT22;25563;50.844;4.308;2023-12-20T02:30:33;7.50;99.90
39889;DHT22;25563;50.844;4.308;2023-12-20T02:33:04;7.40;99.90
39889;DHT22;25563;50.844;4.308;2023-12-20T02:35:33;7.30;99.90
39889;DHT22;25563;50.844;4.308;2023-12-20T02:37:59;7.80;99.90
39889;DHT22;25563;50.844;4.308;2023-12-20T02:40:24;7.50;99.90
39889;DHT22;25563;50.844;4.308;2023-12-20T02:42:50;7.40;99.90
39889;DHT22;25563;50.844;4.308;2023-12-20T02:45:16;7.30;99.90
39889;DHT22;25563;50.844;4.308;2023-12-20T02:47:42;7.30;99.90
39889;DHT22;25563;50.844;4.308;2023-12-20T02:50:08;7.30;99.90
39889;DHT22;25563;50.844;4.308;2023-12-20T02:52:34;7.50;99.90
39889;DHT22;25563;50.844;4.308;2023-12-20T02:55:00;7.60;99.90
39889;DHT22;25563;50.844;4.308;2023-12-20T02:57:26;7.80;99.90
39889;DHT22;25563;50.844;4.308;2023-12-20T02:59:52;7.70;99.90
39889;DHT22;25563;50.844;4.308;2023-12-20T03:02:18;6.30;99.90
39889;DHT22;25563;50.844;4.308;2023-12-20T03:04:44;7.80;99.90
39889;DHT22;25563;50.844;4.308;2023-12-20T03:07:10;7.30;99.90
39889;DHT22;25563;50.844;4.308;2023-12-20T03:09:37;8.00;99.90
39889;DHT22;25563;50.844;4.308;2023-12-20T03:12:05;7.90;99.90
39889;DHT22;25563;50.844;4.308;2023-12-20T03:14:31;7.50;99.90
39889;DHT22;25563;50.844;4.308;2023-12-20T03:16:57;7.80;99.90
39889;DHT22;25563;50.844;4.308;2023-12-20T03:19:22;7.90;99.90
39889;DHT22;25563;50.844;4.308;2023-12-20T03:21:48;8.10;99.90
39889;DHT22;25563;50.844;4.308;2023-12-20T03:24:14;8.30;99.90
39889;DHT22;25563;50.844;4.308;2023-12-20T03:26:40;8.30;99.90
39889;DHT22;25563;50.844;4.308;2023-12-20T03:29:05;8.20;99.90
39889;DHT22;25563;50.844;4.308;2023-12-20T03:31:31;8.30;99.90
39889;DHT22;25563;50.844;4.308;2023-12-20T03:33:57;8.30;99.90
39889;DHT22;25563;50.844;4.308;2023-12-20T03:36:22;8.30;99.90
39889;DHT22;25563;50.844;4.308;2023-12-20T03:38:48;8.30;99.90
39889;DHT22;25563;50.844;4.308;2023-12-20T03:41:15;8.10;99.90
39889;DHT22;25563;50.844;4.308;2023-12-20T03:43:41;8.10;99.90
39889;DHT22;25563;50.844;4.308;2023-12-20T03:46:08;8.10;99.90
39889;DHT22;25563;50.844;4.308;2023-12-20T03:48:34;7.90;99.90
39889;DHT22;25563;50.844;4.308;2023-12-20T03:51:00;7.60;99.90
39889;DHT22;25563;50.844;4.308;2023-12-20T03:53:25;7.90;99.90
39889;DHT22;25563;50.844;4.308;2023-12-20T03:55:51;7.60;99.90
39889;DHT22;25563;50.844;4.308;2023-12-20T03:58:17;7.70;99.90
39889;DHT22;25563;50.844;4.308;2023-12-20T04:00:43;7.70;99.90
39889;DHT22;25563;50.844;4.308;2023-12-20T04:03:08;8.00;99.90
39889;DHT22;25563;50.844;4.308;2023-12-20T04:05:34;7.90;99.90
39889;DHT22;25563;50.844;4.308;2023-12-20T04:08:01;7.90;99.90
39889;DHT22;25563;50.844;4.308;2023-12-20T04:10:27;7.90;99.90
39889;DHT22;25563;50.844;4.308;2023-12-20T04:12:53;7.90;99.90
39889;DHT22;25563;50.844;4.308;2023-12-20T04:15:39;8.10;99.90
39889;DHT22;25563;50.844;4.308;2023-12-20T04:18:05;7.90;99.90
39889;DHT22;25563;50.844;4.308;2023-12-20T04:20:31;7.80;99.90
39889;DHT22;25563;50.844;4.308;2023-12-20T04:22:57;7.80;99.90
39889;DHT22;25563;50.844;4.308;2023-12-20T04:25:23;7.80;99.90
39889;DHT22;25563;50.844;4.308;2023-12-20T04:27:48;7.50;99.90
39889;DHT22;25563;50.844;4.308;2023-12-20T04:30:14;7.80;99.90
39889;DHT22;25563;50.844;4.308;2023-12-20T04:32:40;8.00;99.90
39889;DHT22;25563;50.844;4.308;2023-12-20T04:35:07;7.80;99.90
39889;DHT22;25563;50.844;4.308;2023-12-20T04:37:34;7.70;99.90
39889;DHT22;25563;50.844;4.308;2023-12-20T04:40:00;7.60;99.90
39889;DHT22;25563;50.844;4.308;2023-12-20T04:42:28;7.40;99.90
39889;DHT22;25563;50.844;4.308;2023-12-20T04:44:55;7.60;99.90
39889;DHT22;25563;50.844;4.308;2023-12-20T04:47:20;7.50;99.90
39889;DHT22;25563;50.844;4.308;2023-12-20T04:49:47;7.90;99.90
39889;DHT22;25563;50.844;4.308;2023-12-20T04:52:14;9.20;99.90
39889;DHT22;25563;50.844;4.308;2023-12-20T04:54:40;7.90;99.90
39889;DHT22;25563;50.844;4.308;2023-12-20T04:57:06;7.70;99.90
39889;DHT22;25563;50.844;4.308;2023-12-20T04:59:31;8.00;99.90
39889;DHT22;25563;50.844;4.308;2023-12-20T05:01:58;8.10;99.90
39889;DHT22;25563;50.844;4.308;2023-12-20T05:04:25;8.10;99.90
39889;DHT22;25563;50.844;4.308;2023-12-20T05:06:52;6.70;99.90
39889;DHT22;25563;50.844;4.308;2023-12-20T05:09:19;7.70;99.90
39889;DHT22;25563;50.844;4.308;2023-12-20T05:11:45;7.80;99.90
39889;DHT22;25563;50.844;4.308;2023-12-20T05:14:11;7.80;99.90
39889;DHT22;25563;50.844;4.308;2023-12-20T05:16:36;7.90;99.90
39889;DHT22;25563;50.844;4.308;2023-12-20T05:19:02;7.70;99.90
39889;DHT22;25563;50.844;4.308;2023-12-20T05:21:32;7.80;99.90
39889;DHT22;25563;50.844;4.308;2023-12-20T05:24:00;7.80;99.90
39889;DHT22;25563;50.844;4.308;2023-12-20T05:26:26;7.70;99.90
39889;DHT22;25563;50.844;4.308;2023-12-20T05:28:51;7.50;99.90
39889;DHT22;25563;50.844;4.308;2023-12-20T05:31:18;7.50;99.90
39889;DHT22;25563;50.844;4.308;2023-12-20T05:33:44;7.40;99.90
39889;DHT22;25563;50.844;4.308;2023-12-20T05:36:10;7.40;99.90
39889;DHT22;25563;50.844;4.308;2023-12-20T05:38:39;7.20;99.90
39889;DHT22;25563;50.844;4.308;2023-12-20T05:41:05;7.30;99.90
39889;DHT22;25563;50.844;4.308;2023-12-20T05:43:51;7.40;99.90
39889;DHT22;25563;50.844;4.308;2023-12-20T05:46:17;7.40;99.90
39889;DHT22;25563;50.844;4.308;2023-12-20T05:48:42;7.30;99.90
39889;DHT22;25563;50.844;4.308;2023-12-20T05:51:11;7.10;99.90
39889;DHT22;25563;50.844;4.308;2023-12-20T05:53:37;7.10;99.90
39889;DHT22;25563;50.844;4.308;2023-12-20T05:56:04;7.20;99.90
39889;DHT22;25563;50.844;4.308;2023-12-20T05:58:30;6.40;99.90
39889;DHT22;25563;50.844;4.308;2023-12-20T06:00:55;7.10;99.90
39889;DHT22;25563;50.844;4.308;2023-12-20T06:03:21;7.10;99.90
39889;DHT22;25563;50.844;4.308;2023-12-20T06:05:47;7.10;99.90
39889;DHT22;25563;50.844;4.308;2023-12-20T06:08:13;7.10;99.90
39889;DHT22;25563;50.844;4.308;2023-12-20T06:10:38;7.30;99.90
39889;DHT22;25563;50.844;4.308;2023-12-20T06:13:04;7.30;99.90
39889;DHT22;25563;50.844;4.308;2023-12-20T06:15:32;7.40;99.90
39889;DHT22;25563;50.844;4.308;2023-12-20T06:17:58;7.30;99.90
39889;DHT22;25563;50.844;4.308;2023-12-20T06:20:24;7.30;99.90
39889;DHT22;25563;50.844;4.308;2023-12-20T06:22:50;7.50;99.90
39889;DHT22;25563;50.844;4.308;2023-12-20T06:25:16;7.50;99.90
39889;DHT22;25563;50.844;4.308;2023-12-20T06:27:42;7.60;99.90
39889;DHT22;25563;50.844;4.308;2023-12-20T06:30:08;7.50;99.90
39889;DHT22;25563;50.844;4.308;2023-12-20T06:32:37;7.50;99.90
39889;DHT22;25563;50.844;4.308;2023-12-20T06:35:04;7.60;99.90
39889;DHT22;25563;50.844;4.308;2023-12-20T06:37:30;7.50;99.90
39889;DHT22;25563;50.844;4.308;2023-12-20T06:39:56;7.40;99.90
39889;DHT22;25563;50.844;4.308;2023-12-20T06:42:25;7.40;99.90
39889;DHT22;25563;50.844;4.308;2023-12-20T06:44:53;7.40;99.90
39889;DHT22;25563;50.844;4.308;2023-12-20T06:47:22;8.10;99.90
39889;DHT22;25563;50.844;4.308;2023-12-20T06:49:48;7.30;99.90
39889;DHT22;25563;50.844;4.308;2023-12-20T06:52:15;7.20;99.90
39889;DHT22;25563;50.844;4.308;2023-12-20T06:54:44;7.20;99.90
39889;DHT22;25563;50.844;4.308;2023-12-20T06:57:12;6.80;99.90
39889;DHT22;25563;50.844;4.308;2023-12-20T06:59:42;6.90;99.90
39889;DHT22;25563;50.844;4.308;2023-12-20T07:02:09;7.10;99.90
39889;DHT22;25563;50.844;4.308;2023-12-20T07:04:41;6.90;99.90
39889;DHT22;25563;50.844;4.308;2023-12-20T07:07:07;6.80;99.90
39889;DHT22;25563;50.844;4.308;2023-12-20T07:09:38;7.50;99.90
39889;DHT22;25563;50.844;4.308;2023-12-20T07:12:04;6.90;99.90
39889;DHT22;25563;50.844;4.308;2023-12-20T07:14:49;6.80;99.90
39889;DHT22;25563;50.844;4.308;2023-12-20T07:17:15;6.90;99.90
39889;DHT22;25563;50.844;4.308;2023-12-20T07:19:42;8.70;99.90
39889;DHT22;25563;50.844;4.308;2023-12-20T07:22:08;6.80;99.90
39889;DHT22;25563;50.844;4.308;2023-12-20T07:24:35;6.80;99.90
39889;DHT22;25563;50.844;4.308;2023-12-20T07:27:01;6.80;99.90
39889;DHT22;25563;50.844;4.308;2023-12-20T07:29:27;6.80;99.90
39889;DHT22;25563;50.844;4.308;2023-12-20T07:31:53;6.80;99.90
39889;DHT22;25563;50.844;4.308;2023-12-20T07:34:23;6.80;99.90
39889;DHT22;25563;50.844;4.308;2023-12-20T07:36:50;6.70;99.90
39889;DHT22;25563;50.844;4.308;2023-12-20T07:39:16;6.50;99.90
39889;DHT22;25563;50.844;4.308;2023-12-20T07:41:47;6.70;99.90
39889;DHT22;25563;50.844;4.308;2023-12-20T07:44:14;6.50;99.90
39889;DHT22;25563;50.844;4.308;2023-12-20T07:46:41;6.60;99.90
39889;DHT22;25563;50.844;4.308;2023-12-20T07:49:06;6.60;99.90
39889;DHT22;25563;50.844;4.308;2023-12-20T07:51:35;6.70;99.90
39889;DHT22;25563;50.844;4.308;2023-12-20T07:54:02;6.60;99.90
39889;DHT22;25563;50.844;4.308;2023-12-20T07:56:29;6.80;99.90
39889;DHT22;25563;50.844;4.308;2023-12-20T07:58:55;6.90;99.90
39889;DHT22;25563;50.844;4.308;2023-12-20T08:01:21;6.80;99.90
39889;DHT22;25563;50.844;4.308;2023-12-20T08:03:47;6.70;99.90
39889;DHT22;25563;50.844;4.308;2023-12-20T08:06:13;6.90;99.90
39889;DHT22;25563;50.844;4.308;2023-12-20T08:08:39;6.80;99.90
39889;DHT22;25563;50.844;4.308;2023-12-20T08:11:06;6.80;99.90
39889;DHT22;25563;50.844;4.308;2023-12-20T08:13:32;6.80;99.90
39889;DHT22;25563;50.844;4.308;2023-12-20T08:15:58;6.80;99.90
39889;DHT22;25563;50.844;4.308;2023-12-20T08:18:23;6.70;99.90
39889;DHT22;25563;50.844;4.308;2023-12-20T08:20:49;6.70;99.90
39889;DHT22;25563;50.844;4.308;2023-12-20T08:23:18;6.80;99.90
39889;DHT22;25563;50.844;4.308;2023-12-20T08:25:45;6.80;99.90
39889;DHT22;25563;50.844;4.308;2023-12-20T08:28:11;6.80;99.90
39889;DHT22;25563;50.844;4.308;2023-12-20T08:30:37;6.90;99.90
39889;DHT22;25563;50.844;4.308;2023-12-20T08:33:04;6.90;99.90
39889;DHT22;25563;50.844;4.308;2023-12-20T08:35:30;6.80;99.90
39889;DHT22;25563;50.844;4.308;2023-12-20T08:37:56;6.80;99.90
39889;DHT22;25563;50.844;4.308;2023-12-20T08:40:22;6.90;99.90
39889;DHT22;25563;50.844;4.308;2023-12-20T08:42:48;6.80;99.90
39889;DHT22;25563;50.844;4.308;2023-12-20T08:45:14;6.90;99.90
39889;DHT22;25563;50.844;4.308;2023-12-20T08:47:40;7.00;99.90
39889;DHT22;25563;50.844;4.308;2023-12-20T08:50:07;6.90;99.90
39889;DHT22;25563;50.844;4.308;2023-12-20T08:52:34;7.10;99.90
39889;DHT22;25563;50.844;4.308;2023-12-20T08:55:00;7.10;99.90
39889;DHT22;25563;50.844;4.308;2023-12-20T08:57:26;7.00;99.90
39889;DHT22;25563;50.844;4.308;2023-12-20T08:59:54;7.00;99.90
39889;DHT22;25563;50.844;4.308;2023-12-20T09:02:20;7.10;99.90
39889;DHT22;25563;50.844;4.308;2023-12-20T09:04:46;7.10;99.90
39889;DHT22;25563;50.844;4.308;2023-12-20T09:07:26;5.70;99.90
39889;DHT22;25563;50.844;4.308;2023-12-20T09:09:52;7.10;99.90
39889;DHT22;25563;50.844;4.308;2023-12-20T09:12:21;7.00;99.90
39889;DHT22;25563;50.844;4.308;2023-12-20T09:14:48;7.10;99.90
39889;DHT22;25563;50.844;4.308;2023-12-20T09:17:16;7.10;99.90
39889;DHT22;25563;50.844;4.308;2023-12-20T09:19:42;7.30;99.90
39889;DHT22;25563;50.844;4.308;2023-12-20T09:22:09;7.40;99.90
39889;DHT22;25563;50.844;4.308;2023-12-20T09:24:37;7.50;99.90
39889;DHT22;25563;50.844;4.308;2023-12-20T09:27:05;7.40;99.90
39889;DHT22;25563;50.844;4.308;2023-12-20T09:29:33;7.40;99.90
39889;DHT22;25563;50.844;4.308;2023-12-20T09:31:59;7.50;99.90
39889;DHT22;25563;50.844;4.308;2023-12-20T09:34:25;7.50;99.90
39889;DHT22;25563;50.844;4.308;2023-12-20T09:36:53;7.50;99.90
39889;DHT22;25563;50.844;4.308;2023-12-20T09:39:19;7.50;99.90
39889;DHT22;25563;50.844;4.308;2023-12-20T09:44:21;7.70;99.90
39889;DHT22;25563;50.844;4.308;2023-12-20T09:46:49;7.70;99.90
39889;DHT22;25563;50.844;4.308;2023-12-20T09:49:18;7.70;99.90
39889;DHT22;25563;50.844;4.308;2023-12-20T09:51:46;7.90;99.90
39889;DHT22;25563;50.844;4.308;2023-12-20T09:54:15;8.20;99.90
39889;DHT22;25563;50.844;4.308;2023-12-20T09:56:42;8.40;99.90
39889;DHT22;25563;50.844;4.308;2023-12-20T09:59:07;8.30;99.90
39889;DHT22;25563;50.844;4.308;2023-12-20T10:01:36;8.50;99.90
39889;DHT22;25563;50.844;4.308;2023-12-20T10:04:05;8.60;99.90
39889;DHT22;25563;50.844;4.308;2023-12-20T10:06:39;8.70;99.90
39889;DHT22;25563;50.844;4.308;2023-12-20T10:09:06;8.50;99.90
39889;DHT22;25563;50.844;4.308;2023-12-20T10:11:32;8.30;99.90
39889;DHT22;25563;50.844;4.308;2023-12-20T10:14:01;8.30;99.90
39889;DHT22;25563;50.844;4.308;2023-12-20T10:16:28;7.60;99.90
39889;DHT22;25563;50.844;4.308;2023-12-20T10:18:54;8.20;99.90
39889;DHT22;25563;50.844;4.308;2023-12-20T10:21:24;8.30;99.90
39889;DHT22;25563;50.844;4.308;2023-12-20T10:23:53;8.70;99.90
39889;DHT22;25563;50.844;4.308;2023-12-20T10:26:22;8.80;99.90
39889;DHT22;25563;50.844;4.308;2023-12-20T10:28:59;8.90;99.90
39889;DHT22;25563;50.844;4.308;2023-12-20T10:31:33;8.90;99.90
39889;DHT22;25563;50.844;4.308;2023-12-20T10:34:01;9.10;99.90
39889;DHT22;25563;50.844;4.308;2023-12-20T10:36:31;9.20;99.90
39889;DHT22;25563;50.844;4.308;2023-12-20T10:38:57;9.30;99.90
39889;DHT22;25563;50.844;4.308;2023-12-20T10:41:31;9.30;99.90
39889;DHT22;25563;50.844;4.308;2023-12-20T10:44:02;9.50;99.90
39889;DHT22;25563;50.844;4.308;2023-12-20T10:46:29;9.30;99.90
39889;DHT22;25563;50.844;4.308;2023-12-20T10:48:56;9.50;99.90
39889;DHT22;25563;50.844;4.308;2023-12-20T10:51:23;9.90;99.90
39889;DHT22;25563;50.844;4.308;2023-12-20T10:53:53;9.80;99.90
39889;DHT22;25563;50.844;4.308;2023-12-20T10:56:20;9.90;99.90
39889;DHT22;25563;50.844;4.308;2023-12-20T10:58:53;9.80;99.90
39889;DHT22;25563;50.844;4.308;2023-12-20T11:01:23;9.90;99.90
39889;DHT22;25563;50.844;4.308;2023-12-20T11:03:55;10.00;99.90
39889;DHT22;25563;50.844;4.308;2023-12-20T11:09:38;9.70;99.90
39889;DHT22;25563;50.844;4.308;2023-12-20T11:12:13;9.80;99.90
39889;DHT22;25563;50.844;4.308;2023-12-20T11:14:51;9.90;99.90
39889;DHT22;25563;50.844;4.308;2023-12-20T11:17:18;9.80;99.90
39889;DHT22;25563;50.844;4.308;2023-12-20T11:22:22;9.80;99.90
39889;DHT22;25563;50.844;4.308;2023-12-20T11:24:51;10.00;99.90
39889;DHT22;25563;50.844;4.308;2023-12-20T11:27:18;10.10;99.90
39889;DHT22;25563;50.844;4.308;2023-12-20T11:29:56;10.20;99.90
39889;DHT22;25563;50.844;4.308;2023-12-20T11:34:59;10.00;99.90
39889;DHT22;25563;50.844;4.308;2023-12-20T11:37:31;10.10;99.90
39889;DHT22;25563;50.844;4.308;2023-12-20T11:40:07;10.00;99.90
39889;DHT22;25563;50.844;4.308;2023-12-20T11:42:52;10.00;99.90
39889;DHT22;25563;50.844;4.308;2023-12-20T11:45:21;9.80;99.90
39889;DHT22;25563;50.844;4.308;2023-12-20T11:47:51;9.70;99.90
39889;DHT22;25563;50.844;4.308;2023-12-20T11:50:17;9.80;99.90
39889;DHT22;25563;50.844;4.308;2023-12-20T11:52:45;9.60;99.90
39889;DHT22;25563;50.844;4.308;2023-12-20T11:55:13;9.60;99.90
39889;DHT22;25563;50.844;4.308;2023-12-20T11:57:39;9.80;99.90
39889;DHT22;25563;50.844;4.308;2023-12-20T12:00:06;9.90;99.90
39889;DHT22;25563;50.844;4.308;2023-12-20T12:02:34;10.20;99.90
39889;DHT22;25563;50.844;4.308;2023-12-20T12:05:00;10.20;99.90
39889;DHT22;25563;50.844;4.308;2023-12-20T12:07:26;10.30;99.90
39889;DHT22;25563;50.844;4.308;2023-12-20T12:09:52;10.00;99.90
39889;DHT22;25563;50.844;4.308;2023-12-20T12:12:18;10.30;99.90
39889;DHT22;25563;50.844;4.308;2023-12-20T12:14:48;10.20;99.90
39889;DHT22;25563;50.844;4.308;2023-12-20T12:17:15;10.40;99.90
39889;DHT22;25563;50.844;4.308;2023-12-20T12:19:41;10.60;99.90
39889;DHT22;25563;50.844;4.308;2023-12-20T12:22:09;10.60;99.90
39889;DHT22;25563;50.844;4.308;2023-12-20T12:24:46;10.70;99.90
39889;DHT22;25563;50.844;4.308;2023-12-20T12:27:15;10.70;99.90
39889;DHT22;25563;50.844;4.308;2023-12-20T12:30:07;10.40;99.90
39889;DHT22;25563;50.844;4.308;2023-12-20T12:32:33;10.30;99.90
39889;DHT22;25563;50.844;4.308;2023-12-20T12:35:02;10.50;99.90
39889;DHT22;25563;50.844;4.308;2023-12-20T12:37:28;10.60;99.90
39889;DHT22;25563;50.844;4.308;2023-12-20T12:39:55;10.70;99.90
39889;DHT22;25563;50.844;4.308;2023-12-20T12:42:20;10.60;99.90
39889;DHT22;25563;50.844;4.308;2023-12-20T12:44:47;10.40;99.90
39889;DHT22;25563;50.844;4.308;2023-12-20T12:47:13;10.60;99.90
39889;DHT22;25563;50.844;4.308;2023-12-20T12:49:40;10.40;99.90
39889;DHT22;25563;50.844;4.308;2023-12-20T12:52:06;10.40;99.90
39889;DHT22;25563;50.844;4.308;2023-12-20T12:54:32;10.30;99.90
39889;DHT22;25563;50.844;4.308;2023-12-20T12:56:58;10.20;99.90
39889;DHT22;25563;50.844;4.308;2023-12-20T12:59:23;10.30;99.90
39889;DHT22;25563;50.844;4.308;2023-12-20T13:01:49;10.40;99.90
39889;DHT22;25563;50.844;4.308;2023-12-20T13:04:15;10.30;99.90
39889;DHT22;25563;50.844;4.308;2023-12-20T13:06:41;10.20;99.90
39889;DHT22;25563;50.844;4.308;2023-12-20T13:09:07;10.10;99.90
39889;DHT22;25563;50.844;4.308;2023-12-20T13:11:35;10.20;99.90
39889;DHT22;25563;50.844;4.308;2023-12-20T13:14:01;10.50;99.90
39889;DHT22;25563;50.844;4.308;2023-12-20T13:16:27;10.60;99.90
39889;DHT22;25563;50.844;4.308;2023-12-20T13:18:55;10.80;99.90
39889;DHT22;25563;50.844;4.308;2023-12-20T13:21:22;10.60;99.90
39889;DHT22;25563;50.844;4.308;2023-12-20T13:23:49;10.70;99.90
39889;DHT22;25563;50.844;4.308;2023-12-20T13:26:15;10.90;99.90
39889;DHT22;25563;50.844;4.308;2023-12-20T13:28:42;10.70;99.90
39889;DHT22;25563;50.844;4.308;2023-12-20T13:31:07;10.90;99.90
39889;DHT22;25563;50.844;4.308;2023-12-20T13:33:35;10.90;99.90
39889;DHT22;25563;50.844;4.308;2023-12-20T13:36:00;10.90;99.90
39889;DHT22;25563;50.844;4.308;2023-12-20T13:38:26;10.90;99.90
39889;DHT22;25563;50.844;4.308;2023-12-20T13:40:52;10.90;99.90
39889;DHT22;25563;50.844;4.308;2023-12-20T13:43:20;10.80;99.90
39889;DHT22;25563;50.844;4.308;2023-12-20T13:45:48;10.90;99.90
39889;DHT22;25563;50.844;4.308;2023-12-20T13:48:14;10.90;99.90
39889;DHT22;25563;50.844;4.308;2023-12-20T13:50:39;10.80;99.90
39889;DHT22;25563;50.844;4.308;2023-12-20T13:53:06;10.90;99.90
39889;DHT22;25563;50.844;4.308;2023-12-20T13:55:32;10.80;99.90
39889;DHT22;25563;50.844;4.308;2023-12-20T13:58:01;10.60;99.90
39889;DHT22;25563;50.844;4.308;2023-12-20T14:00:29;10.80;99.90
39889;DHT22;25563;50.844;4.308;2023-12-20T14:02:56;10.70;99.90
39889;DHT22;25563;50.844;4.308;2023-12-20T14:05:22;10.90;99.90
39889;DHT22;25563;50.844;4.308;2023-12-20T14:07:49;11.00;99.90
39889;DHT22;25563;50.844;4.308;2023-12-20T14:10:16;11.30;99.90
39889;DHT22;25563;50.844;4.308;2023-12-20T14:12:44;11.30;99.90
39889;DHT22;25563;50.844;4.308;2023-12-20T14:15:11;11.20;99.90
39889;DHT22;25563;50.844;4.308;2023-12-20T14:17:39;11.20;99.90
39889;DHT22;25563;50.844;4.308;2023-12-20T14:20:09;11.20;99.90
39889;DHT22;25563;50.844;4.308;2023-12-20T14:22:35;11.00;99.90
39889;DHT22;25563;50.844;4.308;2023-12-20T14:25:01;10.90;99.90
39889;DHT22;25563;50.844;4.308;2023-12-20T14:27:28;11.00;99.90
39889;DHT22;25563;50.844;4.308;2023-12-20T14:29:54;11.00;99.90
39889;DHT22;25563;50.844;4.308;2023-12-20T14:32:20;10.90;99.90
39889;DHT22;25563;50.844;4.308;2023-12-20T14:34:48;11.00;99.90
39889;DHT22;25563;50.844;4.308;2023-12-20T14:37:15;11.00;99.90
39889;DHT22;25563;50.844;4.308;2023-12-20T14:39:42;10.90;99.90
39889;DHT22;25563;50.844;4.308;2023-12-20T14:42:08;10.80;99.90
39889;DHT22;25563;50.844;4.308;2023-12-20T14:44:39;11.10;99.90
39889;DHT22;25563;50.844;4.308;2023-12-20T14:47:04;11.20;99.90
39889;DHT22;25563;50.844;4.308;2023-12-20T14:49:31;11.10;99.90
39889;DHT22;25563;50.844;4.308;2023-12-20T14:51:58;11.00;99.90
39889;DHT22;25563;50.844;4.308;2023-12-20T14:54:24;11.20;99.90
39889;DHT22;25563;50.844;4.308;2023-12-20T14:56:51;11.30;99.90
39889;DHT22;25563;50.844;4.308;2023-12-20T14:59:18;11.00;99.90
39889;DHT22;25563;50.844;4.308;2023-12-20T15:01:44;10.90;99.90
39889;DHT22;25563;50.844;4.308;2023-12-20T15:04:10;11.10;99.90
39889;DHT22;25563;50.844;4.308;2023-12-20T15:06:36;11.30;99.90
39889;DHT22;25563;50.844;4.308;2023-12-20T15:09:02;11.20;99.90
39889;DHT22;25563;50.844;4.308;2023-12-20T15:11:31;11.20;99.90
39889;DHT22;25563;50.844;4.308;2023-12-20T15:13:57;11.00;99.90
39889;DHT22;25563;50.844;4.308;2023-12-20T15:16:24;10.90;99.90
39889;DHT22;25563;50.844;4.308;2023-12-20T15:18:52;11.00;99.90
39889;DHT22;25563;50.844;4.308;2023-12-20T15:21:20;11.20;99.90
39889;DHT22;25563;50.844;4.308;2023-12-20T15:23:55;11.30;99.90
39889;DHT22;25563;50.844;4.308;2023-12-20T15:26:32;11.10;99.90
39889;DHT22;25563;50.844;4.308;2023-12-20T15:28:58;11.00;99.90
39889;DHT22;25563;50.844;4.308;2023-12-20T15:31:24;11.00;99.90
39889;DHT22;25563;50.844;4.308;2023-12-20T15:33:52;11.10;99.90
39889;DHT22;25563;50.844;4.308;2023-12-20T15:36:19;11.10;99.90
39889;DHT22;25563;50.844;4.308;2023-12-20T15:38:45;11.20;99.90
39889;DHT22;25563;50.844;4.308;2023-12-20T15:41:19;11.20;99.90
39889;DHT22;25563;50.844;4.308;2023-12-20T15:43:45;10.90;99.90
39889;DHT22;25563;50.844;4.308;2023-12-20T15:46:11;10.90;99.90
39889;DHT22;25563;50.844;4.308;2023-12-20T15:48:49;10.60;99.90
39889;DHT22;25563;50.844;4.308;2023-12-20T15:51:21;10.50;99.90
39889;DHT22;25563;50.844;4.308;2023-12-20T15:53:47;10.80;99.90